| time (UTC) | temp F | wind direction | speed knots | gust knots | rain 1hr in | rain 24hr in | rain mn in | humidity % | barometer mb |
| 20260905000101 | 61 | 181 | 0.9 | 3.5 | 0.00 | 0.34 | 0.18 | 47 | 1013.6 |
| 20260904234559 | 61 | 209 | 0.9 | 6.1 | 0.00 | 0.34 | 0.18 | 46 | 1013.4 |
| 20260904233054 | 61 | 257 | 0.0 | 3.5 | 0.00 | 0.34 | 0.18 | 40 | 1013.3 |
| 20260904231546 | 61 | 200 | 1.7 | 6.1 | 0.00 | 0.34 | 0.18 | 40 | 1013.2 |
| 20260904230042 | 61 | 194 | 0.9 | 5.2 | 0.00 | 0.40 | 0.18 | 36 | 1013.1 |
| 20260904224538 | 61 | 240 | 0.9 | 4.3 | 0.00 | 0.40 | 0.18 | 5 | 1013.2 |
| 20260904223033 | 59 | 253 | 0.0 | 3.5 | 0.01 | 0.40 | 0.18 | 100 | 1013.2 |
| 20260904221528 | 58 | 254 | 0.0 | 1.7 | 0.01 | 0.40 | 0.18 | 100 | 1013.2 |
| 20260904220024 | 57 | 25 | 0.0 | 0.9 | 0.03 | 0.47 | 0.18 | 100 | 1013.2 |
| 20260904214519 | 57 | 25 | 0.0 | 0.0 | 0.04 | 0.47 | 0.18 | 100 | 1013.1 |
| 20260904213015 | 56 | 25 | 0.0 | 1.7 | 0.03 | 0.46 | 0.17 | 100 | 1013.0 |
| 20260904211511 | 56 | 163 | 0.0 | 1.7 | 0.03 | 0.46 | 0.17 | 100 | 1013.0 |
| 20260904210013 | 56 | 195 | 0.9 | 2.6 | 0.01 | 0.44 | 0.15 | 8 | 1013.1 |
| 20260904204503 | 59 | 219 | 1.7 | 9.6 | 0.00 | 0.43 | 0.14 | 37 | 1013.1 |
| 20260904203059 | 62 | 281 | 0.0 | 3.5 | 0.00 | 0.43 | 0.14 | 45 | 1012.7 |
| 20260904201554 | 62 | 344 | 0.0 | 4.3 | 0.00 | 0.43 | 0.14 | 43 | 1012.5 |
| 20260904200049 | 62 | 213 | 0.9 | 3.5 | 0.00 | 0.43 | 0.14 | 30 | 1012.5 |
| 20260904194555 | 60 | 237 | 0.9 | 1.7 | 0.00 | 0.43 | 0.14 | 8 | 1012.6 |
| 20260904193040 | 59 | 47 | 0.0 | 1.7 | 0.00 | 0.43 | 0.14 | 100 | 1012.8 |
| 20260904191536 | 59 | 305 | 0.0 | 2.6 | 0.00 | 0.43 | 0.14 | 100 | 1012.9 |
| 20260904190031 | 58 | 212 | 0.0 | 1.7 | 0.00 | 0.44 | 0.14 | 100 | 1012.9 |
| 20260904184527 | 57 | 61 | 0.0 | 3.5 | 0.00 | 0.44 | 0.14 | 100 | 1012.9 |
| 20260904183026 | 57 | 178 | 0.0 | 0.9 | 0.00 | 0.44 | 0.14 | 100 | 1012.8 |
| 20260904181523 | 57 | 178 | 0.0 | 0.9 | 0.00 | 0.44 | 0.14 | 100 | 1012.6 |
| 20260904180032 | 56 | 178 | 0.0 | 0.0 | 0.00 | 0.50 | 0.14 | 100 | 1012.6 |
| 20260904174509 | 56 | 178 | 0.0 | 0.9 | 0.00 | 0.50 | 0.14 | 100 | 1012.5 |
| 20260904173006 | 56 | 178 | 0.0 | 0.0 | 0.00 | 0.50 | 0.14 | 100 | 1012.3 |
| 20260904171620 | 55 | 178 | 0.0 | 0.9 | 0.00 | 0.50 | 0.14 | 100 | 1012.2 |
| 20260904170055 | 55 | 178 | 0.0 | 1.7 | 0.00 | 0.50 | 0.14 | 100 | 1012.1 |
| 20260904164606 | 54 | 178 | 0.0 | 0.9 | 0.00 | 0.50 | 0.14 | 100 | 1012.1 |
| 20260904163047 | 54 | 178 | 0.0 | 0.0 | 0.00 | 0.50 | 0.14 | 100 | 1012.0 |
| 20260904161553 | 54 | 178 | 0.0 | 0.9 | 0.00 | 0.50 | 0.14 | 100 | 1011.9 |
| 20260904160039 | 54 | 178 | 0.0 | 0.9 | 0.00 | 0.50 | 0.14 | 100 | 1011.9 |
| 20260904154540 | 53 | 178 | 0.0 | 0.9 | 0.00 | 0.50 | 0.14 | 100 | 1012.0 |
| 20260904153035 | 53 | 178 | 0.0 | 0.9 | 0.01 | 0.50 | 0.14 | 100 | 1011.8 |
| 20260904151524 | 53 | 178 | 0.0 | 0.9 | 0.02 | 0.50 | 0.14 | 100 | 1011.7 |
| 20260904150020 | 52 | 178 | 0.0 | 0.0 | 0.02 | 0.50 | 0.14 | 100 | 1011.5 |
| 20260904144516 | 52 | 178 | 0.0 | 0.0 | 0.02 | 0.50 | 0.14 | 100 | 1011.4 |
| 20260904143016 | 52 | 178 | 0.0 | 0.0 | 0.02 | 0.49 | 0.13 | 100 | 1011.3 |
| 20260904141508 | 52 | 178 | 0.0 | 0.0 | 0.01 | 0.48 | 0.12 | 100 | 1011.2 |
| 20260904140003 | 52 | 178 | 0.0 | 0.0 | 0.01 | 0.57 | 0.12 | 100 | 1011.0 |
| 20260904134603 | 51 | 178 | 0.0 | 0.9 | 0.01 | 0.57 | 0.12 | 100 | 1010.7 |
| 20260904133101 | 51 | 178 | 0.0 | 0.0 | 0.00 | 0.56 | 0.11 | 100 | 1010.5 |
| 20260904131550 | 51 | 178 | 0.0 | 0.9 | 0.00 | 0.56 | 0.11 | 100 | 1010.4 |
| 20260904130045 | 51 | 178 | 0.0 | 0.9 | 0.00 | 0.57 | 0.11 | 100 | 1010.3 |
| 20260904124542 | 51 | 178 | 0.0 | 0.0 | 0.00 | 0.57 | 0.11 | 100 | 1010.2 |
| 20260904123036 | 51 | 178 | 0.0 | 0.9 | 0.00 | 0.57 | 0.11 | 100 | 1010.3 |
| 20260904121533 | 51 | 178 | 0.0 | 0.0 | 0.00 | 0.57 | 0.11 | 100 | 1010.2 |
| 20260904120041 | 51 | 178 | 0.0 | 0.0 | 0.00 | 0.57 | 0.11 | 100 | 1010.1 |
| 20260904114524 | 51 | 178 | 0.0 | 0.0 | 0.00 | 0.57 | 0.11 | 100 | 1009.9 |
| 20260904113021 | 51 | 178 | 0.0 | 0.0 | 0.00 | 0.57 | 0.11 | 100 | 1009.8 |
| 20260904111515 | 51 | 178 | 0.0 | 0.9 | 0.00 | 0.57 | 0.11 | 100 | 1009.8 |
| 20260904110014 | 51 | 178 | 0.0 | 0.9 | 0.01 | 0.57 | 0.11 | 100 | 1009.7 |
| 20260904104506 | 51 | 178 | 0.0 | 0.9 | 0.02 | 0.57 | 0.11 | 100 | 1009.7 |
| 20260904103002 | 51 | 178 | 0.0 | 0.0 | 0.03 | 0.57 | 0.11 | 100 | 1009.6 |
| 20260904101557 | 51 | 178 | 0.0 | 0.0 | 0.03 | 0.57 | 0.11 | 100 | 1009.5 |
| 20260904100112 | 51 | 178 | 0.0 | 0.0 | 0.02 | 0.56 | 0.10 | 100 | 1009.6 |
| 20260904094558 | 51 | 178 | 0.0 | 0.9 | 0.02 | 0.56 | 0.09 | 100 | 1009.6 |
| 20260904093044 | 51 | 178 | 0.0 | 0.9 | 0.03 | 0.55 | 0.08 | 100 | 1009.6 |
| 20260904091541 | 51 | 178 | 0.0 | 1.7 | 0.04 | 0.55 | 0.08 | 100 | 1009.6 |
| 20260904090035 | 51 | 178 | 0.0 | 0.9 | 0.06 | 0.55 | 0.08 | 100 | 1009.8 |
| 20260904084532 | 51 | 178 | 0.0 | 0.0 | 0.07 | 0.54 | 0.07 | 100 | 1009.8 |
| 20260904083028 | 51 | 178 | 0.0 | 0.0 | 0.05 | 0.52 | 0.05 | 100 | 1009.7 |
| 20260904081523 | 51 | 178 | 0.0 | 0.0 | 0.04 | 0.51 | 0.04 | 100 | 1009.5 |
| 20260904080020 | 51 | 178 | 0.0 | 0.0 | 0.02 | 0.49 | 0.02 | 100 | 1009.7 |
| 20260904074514 | 51 | 178 | 0.0 | 0.0 | 0.00 | 0.47 | 0.00 | 100 | 1009.8 |
| 20260904073010 | 51 | 178 | 0.0 | 0.0 | 0.01 | 0.47 | 0.00 | 100 | 1009.7 |
| 20260904071505 | 51 | 178 | 0.0 | 0.0 | 0.01 | 0.47 | 0.00 | 100 | 1009.6 |
| 20260904070101 | 51 | 178 | 0.0 | 0.0 | 0.01 | 0.47 | 0.47 | 100 | 1009.5 |
| 20260904064605 | 51 | 178 | 0.0 | 0.0 | 0.01 | 0.47 | 0.47 | 100 | 1009.6 |
| 20260904063052 | 51 | 178 | 0.0 | 0.0 | 0.00 | 0.46 | 0.46 | 100 | 1009.5 |
| 20260904061547 | 51 | 178 | 0.0 | 0.9 | 0.00 | 0.46 | 0.46 | 100 | 1009.4 |
| 20260904060110 | 51 | 178 | 0.0 | 0.0 | 0.00 | 0.46 | 0.46 | 100 | 1009.4 |
| 20260904054540 | 52 | 178 | 0.0 | 0.9 | 0.00 | 0.46 | 0.46 | 100 | 1009.5 |
| 20260904053112 | 52 | 178 | 0.0 | 0.0 | 0.00 | 0.46 | 0.46 | 100 | 1009.5 |
| 20260904051536 | 52 | 178 | 0.0 | 0.0 | 0.00 | 0.46 | 0.46 | 100 | 1009.6 |
| 20260904050032 | 52 | 178 | 0.0 | 0.9 | 0.00 | 0.46 | 0.46 | 100 | 1009.7 |
| 20260904044522 | 52 | 178 | 0.0 | 0.9 | 0.00 | 0.46 | 0.46 | 100 | 1009.6 |
| 20260904043017 | 52 | 178 | 0.0 | 0.9 | 0.00 | 0.46 | 0.46 | 100 | 1009.5 |
| 20260904041512 | 52 | 178 | 0.0 | 1.7 | 0.00 | 0.46 | 0.46 | 100 | 1009.4 |
| 20260904040008 | 52 | 176 | 0.0 | 1.7 | 0.00 | 0.46 | 0.46 | 100 | 1009.6 |
| 20260904034504 | 52 | 204 | 0.0 | 0.9 | 0.01 | 0.46 | 0.46 | 100 | 1009.5 |
| 20260904033107 | 52 | 203 | 0.0 | 0.0 | 0.02 | 0.46 | 0.46 | 100 | 1009.3 |
| 20260904031556 | 52 | 203 | 0.0 | 0.0 | 0.04 | 0.46 | 0.46 | 100 | 1009.3 |
| 20260904030051 | 53 | 203 | 0.0 | 2.6 | 0.07 | 0.46 | 0.46 | 100 | 1009.4 |
| 20260904024549 | 53 | 236 | 0.0 | 3.5 | 0.06 | 0.45 | 0.45 | 100 | 1009.5 |
| 20260904023052 | 53 | 155 | 0.9 | 4.3 | 0.06 | 0.44 | 0.44 | 100 | 1009.6 |
| 20260904021537 | 54 | 178 | 0.0 | 2.6 | 0.05 | 0.42 | 0.42 | 100 | 1009.4 |
| 20260904020038 | 54 | 178 | 0.0 | 0.9 | 0.02 | 0.40 | 0.39 | 100 | 1009.4 |
| 20260904014529 | 54 | 178 | 0.0 | 1.7 | 0.02 | 0.40 | 0.39 | 100 | 1009.3 |
| 20260904013024 | 54 | 178 | 0.0 | 0.9 | 0.02 | 0.39 | 0.38 | 100 | 1009.2 |
| 20260904011521 | 54 | 178 | 0.0 | 2.6 | 0.02 | 0.38 | 0.37 | 100 | 1009.3 |
| 20260904010015 | 55 | 178 | 0.0 | 0.9 | 0.02 | 0.39 | 0.37 | 100 | 1009.3 |
| 20260904004511 | 55 | 178 | 0.0 | 5.2 | 0.05 | 0.39 | 0.37 | 100 | 1009.2 |
| 20260904003006 | 55 | 176 | 0.0 | 6.1 | 0.04 | 0.38 | 0.36 | 100 | 1009.3 |
| 20260904001502 | 55 | 173 | 0.0 | 2.6 | 0.04 | 0.37 | 0.35 | 100 | 1009.4 |